Time;durP1;ratioP1;P1;durP2;ratioP2;P2;SDS_P1;SDS_P2;PMS_P1;PMS_P2;Temp;Humidity;BMP_temperature;BMP_pressure;BME280_temperature;BME280_humidity;BME280_pressure;Samples;Min_cycle;Max_cycle;Signal;HPM_P1;HPM_P2
2023/06/21 00:02:19;;;;;;;6.93;3.13;;;;;;;20.43;71.74;99819.06;5110449;28;20036;-80
2023/06/21 00:04:45;;;;;;;6.53;4.28;;;;;;;20.43;71.93;99827.09;5110112;28;20409;-80
2023/06/21 00:07:10;;;;;;;5.32;2.92;;;;;;;20.39;72.07;99830.94;5110281;28;20027;-80
2023/06/21 00:09:36;;;;;;;5.53;3.45;;;;;;;20.25;72.85;99846.84;5108742;28;20517;-80
2023/06/21 00:12:02;;;;;;;5.78;2.92;;;;;;;19.99;73.13;99799.06;5110590;28;20039;-80
2023/06/21 00:14:27;;;;;;;7.07;3.90;;;;;;;20.11;72.67;99827.03;5109775;28;20035;-80
2023/06/21 00:16:52;;;;;;;9.25;4.25;;;;;;;20.04;73.01;99817.56;5110289;28;20027;-80
2023/06/21 00:19:18;;;;;;;5.97;3.83;;;;;;;20.10;72.63;99838.69;5106560;28;20053;-80
2023/06/21 00:21:44;;;;;;;7.18;3.05;;;;;;;20.07;72.11;99829.94;5089793;28;20113;-80
2023/06/21 00:24:10;;;;;;;7.40;3.53;;;;;;;19.99;71.71;99798.22;5089987;28;20469;-80
2023/06/21 00:26:35;;;;;;;5.85;3.50;;;;;;;19.89;72.12;99808.53;5089438;28;20056;-80
2023/06/21 00:29:01;;;;;;;7.22;4.40;;;;;;;19.85;73.72;99849.78;5089935;28;20377;-80
2023/06/21 00:31:26;;;;;;;7.38;3.55;;;;;;;19.30;74.43;99781.16;5090627;28;20191;-80
2023/06/21 00:33:52;;;;;;;8.32;5.45;;;;;;;19.45;75.26;99820.50;5089558;28;20170;-80
2023/06/21 00:36:17;;;;;;;4.93;3.15;;;;;;;19.78;74.45;99837.66;5090236;28;20059;-80
2023/06/21 00:38:43;;;;;;;4.97;3.60;;;;;;;19.63;74.58;99817.84;5089907;28;20028;-80
2023/06/21 00:41:08;;;;;;;6.35;3.95;;;;;;;19.67;73.97;99812.25;5090447;28;20578;-80
2023/06/21 00:43:34;;;;;;;5.75;3.47;;;;;;;19.76;74.41;99834.16;5089726;28;20058;-80
2023/06/21 00:46:00;;;;;;;10.43;4.22;;;;;;;19.60;75.01;99818.00;5090006;28;20085;-80
2023/06/21 00:48:29;;;;;;;5.95;3.50;;;;;;;19.73;75.13;99842.34;5088930;28;20032;-80
2023/06/21 00:50:58;;;;;;;9.02;3.45;;;;;;;19.70;74.26;99799.69;5090943;28;20085;-80
2023/06/21 00:53:27;;;;;;;5.57;4.28;;;;;;;19.66;74.19;99823.03;5071245;28;20123;-80
2023/06/21 00:55:53;;;;;;;5.97;3.70;;;;;;;19.42;75.01;99804.63;5089484;28;20092;-80
2023/06/21 00:58:21;;;;;;;8.20;4.75;;;;;;;19.14;74.90;99775.72;5071285;28;20032;-80
2023/06/21 01:00:50;;;;;;;7.78;4.65;;;;;;;19.46;74.83;99818.69;5089189;28;20420;-80
2023/06/21 01:03:19;;;;;;;3.30;3.00;;;;;;;19.67;74.67;99836.34;5090246;28;20040;-80
2023/06/21 01:05:52;;;;;;;5.68;3.28;;;;;;;19.40;74.84;99816.31;5089411;28;20040;-80
2023/06/21 01:08:41;;;;;;;7.25;5.28;;;;;;;19.65;75.14;99853.44;5093128;28;20053;-80
2023/06/21 01:11:24;;;;;;;7.20;4.07;;;;;;;19.75;74.47;99869.91;5092708;28;20115;-80
2023/06/21 01:13:58;;;;;;;7.60;3.35;;;;;;;19.62;74.94;99861.63;5106900;28;20084;-80
2023/06/21 01:16:30;;;;;;;5.72;4.00;;;;;;;19.63;74.82;99831.22;5112982;28;20092;-80
2023/06/21 01:19:01;;;;;;;7.65;4.72;;;;;;;19.36;74.63;99794.22;5094813;28;20028;-80
2023/06/21 01:21:28;;;;;;;5.35;3.92;;;;;;;19.68;74.13;99838.09;5106084;28;20034;-80
2023/06/21 01:23:59;;;;;;;7.43;4.22;;;;;;;19.79;73.76;99864.34;5097939;28;20036;-80
2023/06/21 01:26:53;;;;;;;9.32;5.35;;;;;;;19.64;73.75;99822.28;5112928;28;20027;-80
2023/06/21 01:29:30;;;;;;;6.90;4.07;;;;;;;19.62;73.29;99816.13;5113135;28;20031;-80
2023/06/21 01:31:57;;;;;;;7.65;4.40;;;;;;;19.58;74.87;99839.47;5112719;28;20137;-80
2023/06/21 01:34:24;;;;;;;12.65;4.15;;;;;;;19.44;75.98;99837.50;5110914;28;20034;-80
2023/06/21 01:36:50;;;;;;;6.40;4.05;;;;;;;19.35;75.96;99811.19;5112718;28;20121;-80
2023/06/21 01:39:16;;;;;;;8.68;4.22;;;;;;;19.46;75.55;99835.63;5112364;28;20151;-80
2023/06/21 01:41:41;;;;;;;9.13;4.20;;;;;;;19.27;76.00;99837.47;5089453;28;20533;-80
2023/06/21 01:44:13;;;;;;;10.38;4.85;;;;;;;19.19;76.43;99834.31;5102696;28;20039;-80
2023/06/21 01:46:39;;;;;;;5.93;4.32;;;;;;;19.24;76.96;99837.63;5099964;28;20084;-80
2023/06/21 01:49:06;;;;;;;7.32;4.53;;;;;;;19.09;78.00;99849.91;5103058;28;20173;-81
2023/06/21 01:51:36;;;;;;;6.88;4.63;;;;;;;19.15;78.16;99838.91;5099055;28;20402;-81
2023/06/21 01:54:01;;;;;;;5.78;4.47;;;;;;;19.25;77.47;99847.38;5094028;28;20134;-80
2023/06/21 01:56:28;;;;;;;5.55;4.03;;;;;;;19.15;77.49;99825.56;5110673;28;20123;-80
2023/06/21 01:58:54;;;;;;;7.85;5.78;;;;;;;19.13;78.05;99817.59;5112391;28;20541;-80
2023/06/21 02:01:20;;;;;;;8.45;4.35;;;;;;;19.04;78.41;99803.81;5111986;28;20110;-80
2023/06/21 02:03:55;;;;;;;5.85;4.18;;;;;;;19.12;77.94;99815.88;5111933;28;20520;-81
2023/06/21 02:06:24;;;;;;;8.25;4.18;;;;;;;19.36;78.22;99839.69;5107178;28;20032;-81
2023/06/21 02:08:51;;;;;;;6.32;4.45;;;;;;;19.16;78.56;99816.59;5073835;28;20047;-81
2023/06/21 02:11:17;;;;;;;10.10;4.25;;;;;;;19.37;77.93;99848.56;5091713;28;20516;-81
2023/06/21 02:13:45;;;;;;;4.45;3.08;;;;;;;19.31;77.58;99842.59;5102239;28;20518;-81
2023/06/21 02:16:11;;;;;;;7.43;4.13;;;;;;;19.03;77.47;99786.03;5112479;28;20023;-81
2023/06/21 02:18:36;;;;;;;7.00;3.90;;;;;;;19.27;77.41;99846.34;5110158;28;20042;-81
2023/06/21 02:21:02;;;;;;;5.25;3.88;;;;;;;19.08;77.92;99819.66;5112198;28;20481;-81
2023/06/21 02:23:28;;;;;;;7.90;5.20;;;;;;;19.04;77.98;99823.41;5111979;28;20423;-80
2023/06/21 02:25:54;;;;;;;5.30;3.85;;;;;;;18.95;78.85;99855.91;5111847;28;20485;-81
2023/06/21 02:28:20;;;;;;;5.20;3.97;;;;;;;18.95;78.66;99829.19;5082257;28;20047;-81
2023/06/21 02:30:46;;;;;;;8.18;4.40;;;;;;;19.02;78.47;99851.16;5091738;28;20036;-81
2023/06/21 02:33:11;;;;;;;4.93;3.47;;;;;;;18.60;79.67;99797.81;5091113;28;20154;-81
2023/06/21 02:35:37;;;;;;;9.75;5.05;;;;;;;18.88;79.42;99807.22;5091550;28;20024;-81
2023/06/21 02:38:02;;;;;;;5.10;3.15;;;;;;;19.13;79.52;99860.38;5074278;28;20119;-80
2023/06/21 02:40:28;;;;;;;6.25;4.85;;;;;;;19.11;79.17;99846.22;5090966;28;20043;-81
2023/06/21 02:42:53;;;;;;;5.82;3.17;;;;;;;19.25;78.58;99855.41;5091390;28;20093;-81
2023/06/21 02:45:19;;;;;;;7.03;3.85;;;;;;;19.40;77.89;99865.34;5107863;28;20035;-81
2023/06/21 02:47:44;;;;;;;4.72;3.47;;;;;;;19.26;77.75;99852.66;5111655;28;20396;-81
2023/06/21 02:50:11;;;;;;;9.25;4.05;;;;;;;19.18;77.96;99848.59;5109420;28;20085;-81
2023/06/21 02:52:36;;;;;;;6.43;4.13;;;;;;;19.19;77.24;99847.69;5111448;28;20035;-82
2023/06/21 02:55:07;;;;;;;9.35;4.75;;;;;;;19.25;77.18;99866.09;5102134;27;20424;-81
2023/06/21 02:57:33;;;;;;;10.60;4.75;;;;;;;19.12;77.70;99868.47;5105917;28;20035;-84
2023/06/21 02:59:59;;;;;;;8.63;4.30;;;;;;;18.95;77.14;99832.75;5099465;28;20595;-82
2023/06/21 03:02:34;;;;;;;4.72;3.45;;;;;;;19.20;76.72;99860.97;5103930;28;20031;-83
2023/06/21 03:05:00;;;;;;;10.55;2.83;;;;;;;19.24;75.67;99883.06;5110487;28;20035;-83
2023/06/21 03:07:27;;;;;;;8.68;4.90;;;;;;;19.13;76.34;99881.78;5110733;28;20144;-84
2023/06/21 03:09:53;;;;;;;5.40;3.75;;;;;;;19.21;76.30;99893.91;5090315;28;20027;-84
2023/06/21 03:12:19;;;;;;;4.88;3.80;;;;;;;19.24;75.80;99897.31;5090174;28;20035;-83
2023/06/21 03:14:44;;;;;;;5.93;3.47;;;;;;;19.20;75.77;99886.81;5092004;28;20941;-84
2023/06/21 03:17:09;;;;;;;5.47;4.20;;;;;;;19.09;76.05;99882.00;5083910;28;20078;-85
2023/06/21 03:19:35;;;;;;;6.63;4.50;;;;;;;19.02;76.49;99868.06;5102442;28;20024;-84
2023/06/21 03:22:02;;;;;;;4.10;2.90;;;;;;;19.09;76.73;99890.00;5094069;28;20418;-85
2023/06/21 03:24:32;;;;;;;6.90;4.28;;;;;;;19.06;76.28;99875.00;5110718;28;20027;-86
2023/06/21 03:26:58;;;;;;;4.57;3.30;;;;;;;19.35;76.25;99912.84;5110077;28;20080;-86
2023/06/21 03:29:23;;;;;;;5.32;3.88;;;;;;;19.24;76.46;99915.16;5090980;28;20473;-83
2023/06/21 03:31:49;;;;;;;8.82;3.90;;;;;;;19.17;76.38;99908.38;5090967;28;20024;-85
2023/06/21 03:34:14;;;;;;;6.05;4.50;;;;;;;18.99;76.45;99876.22;5089777;28;20028;-83
2023/06/21 03:36:39;;;;;;;5.38;3.33;;;;;;;19.34;76.08;99900.44;5070863;28;20506;-85
2023/06/21 03:39:06;;;;;;;4.97;3.35;;;;;;;19.35;75.70;99880.75;5075786;28;20042;-83
2023/06/21 03:41:32;;;;;;;5.60;3.45;;;;;;;19.69;75.24;99913.88;5099829;28;20035;-84
2023/06/21 03:43:58;;;;;;;4.03;3.00;;;;;;;19.59;75.06;99881.38;5090632;28;20044;-82
2023/06/21 03:46:24;;;;;;;6.63;3.30;;;;;;;19.44;74.95;99868.75;5071882;28;20402;-82
2023/06/21 03:48:51;;;;;;;6.65;3.95;;;;;;;19.48;74.98;99868.50;5095775;28;20085;-83
2023/06/21 03:51:18;;;;;;;8.85;4.63;;;;;;;19.86;73.62;99910.38;5105417;28;20485;-85
2023/06/21 03:53:43;;;;;;;4.50;2.47;;;;;;;19.75;73.06;99884.13;5109003;28;20034;-84
2023/06/21 03:56:09;;;;;;;11.95;3.65;;;;;;;19.68;73.86;99885.41;5110995;28;20028;-84
2023/06/21 03:58:34;;;;;;;6.80;3.67;;;;;;;19.78;73.85;99878.66;5110038;28;20089;-84
2023/06/21 04:01:00;;;;;;;6.60;3.83;;;;;;;19.82;74.77;99882.91;5105981;28;20047;-85
2023/06/21 04:03:26;;;;;;;8.95;4.38;;;;;;;19.94;75.59;99877.88;5091886;28;20178;-84
2023/06/21 04:05:51;;;;;;;8.70;4.05;;;;;;;20.06;75.86;99898.69;5099053;28;20411;-83
2023/06/21 04:08:17;;;;;;;7.07;2.90;;;;;;;20.36;75.34;99914.13;5097440;28;20039;-84
2023/06/21 04:10:42;;;;;;;6.45;3.42;;;;;;;20.32;75.19;99878.59;5099202;28;20039;-83
2023/06/21 04:13:08;;;;;;;7.82;3.65;;;;;;;20.53;73.82;99914.09;5103443;28;20031;-84
2023/06/21 04:15:33;;;;;;;5.82;2.92;;;;;;;20.50;74.16;99906.22;5090352;28;20020;-83
2023/06/21 04:17:59;;;;;;;6.57;4.30;;;;;;;20.53;73.49;99890.00;5099783;28;20065;-84
2023/06/21 04:20:24;;;;;;;7.13;3.40;;;;;;;20.67;73.16;99891.97;5111159;28;20067;-83
2023/06/21 04:22:50;;;;;;;5.13;3.50;;;;;;;20.58;73.46;99901.31;5092221;28;20063;-83
2023/06/21 04:25:16;;;;;;;4.82;3.63;;;;;;;20.57;72.41;99872.81;5090440;28;20043;-83
2023/06/21 04:27:45;;;;;;;4.05;3.65;;;;;;;20.82;72.63;99881.34;5089532;28;20092;-83
2023/06/21 04:30:11;;;;;;;5.95;3.25;;;;;;;20.96;72.86;99878.78;5104723;28;20389;-83
2023/06/21 04:32:45;;;;;;;3.67;2.25;;;;;;;21.22;70.63;99887.19;5096493;28;20366;-83
2023/06/21 04:35:15;;;;;;;4.57;3.63;;;;;;;21.19;70.62;99890.03;5082513;28;20123;-83
2023/06/21 04:37:45;;;;;;;4.85;2.10;;;;;;;21.28;70.46;99902.94;5108493;28;20036;-84
2023/06/21 04:40:15;;;;;;;4.80;2.92;;;;;;;21.49;70.05;99898.22;5092857;28;20031;-83
2023/06/21 04:42:45;;;;;;;16.60;4.68;;;;;;;21.49;69.00;99891.94;5100560;28;20055;-83
2023/06/21 04:45:14;;;;;;;4.68;2.67;;;;;;;21.77;68.90;99913.59;5109794;28;20058;-83
2023/06/21 04:47:41;;;;;;;4.97;2.72;;;;;;;21.61;70.12;99900.19;5112381;28;20114;-84
2023/06/21 04:50:06;;;;;;;17.77;3.55;;;;;;;21.55;69.29;99879.06;5107930;28;20038;-85
2023/06/21 04:52:32;;;;;;;4.07;2.95;;;;;;;21.90;67.92;99883.34;5098903;28;20028;-84
2023/06/21 04:54:59;;;;;;;5.03;3.20;;;;;;;22.02;68.17;99876.38;5111300;28;20032;-84
2023/06/21 04:57:26;;;;;;;7.15;2.92;;;;;;;21.74;67.59;99873.50;5112710;28;20028;-85
2023/06/21 04:59:51;;;;;;;5.60;3.80;;;;;;;21.83;67.18;99888.22;5113335;28;20143;-84
2023/06/21 05:02:17;;;;;;;5.65;2.97;;;;;;;21.93;66.75;99861.66;5112516;28;20080;-85
2023/06/21 05:04:42;;;;;;;6.00;3.53;;;;;;;22.16;64.89;99908.63;5110813;28;20500;-87
2023/06/21 05:07:08;;;;;;;4.13;3.63;;;;;;;21.94;65.32;99903.69;5107713;28;20082;-87
2023/06/21 05:09:33;;;;;;;3.45;2.33;;;;;;;22.09;65.79;99875.91;5103429;28;20030;-85
2023/06/21 05:11:59;;;;;;;6.90;3.20;;;;;;;22.05;64.76;99895.00;5112938;28;20028;-88
2023/06/21 05:14:24;;;;;;;4.15;2.80;;;;;;;21.81;64.76;99884.72;5113265;28;20039;-89
2023/06/21 05:16:50;;;;;;;6.10;2.95;;;;;;;22.45;66.34;99920.34;5094223;28;20159;-88
2023/06/21 05:19:16;;;;;;;6.03;3.97;;;;;;;22.26;64.65;99876.69;5112722;28;20486;-87
2023/06/21 05:21:43;;;;;;;4.43;2.95;;;;;;;22.49;65.47;99905.78;5113205;28;20027;-85
2023/06/21 05:24:09;;;;;;;5.47;3.55;;;;;;;23.24;63.35;99924.41;5105678;28;20032;-86
2023/06/21 05:26:34;;;;;;;7.47;3.83;;;;;;;23.14;63.65;99915.22;5096029;27;20093;-89
2023/06/21 05:29:00;;;;;;;4.22;2.55;;;;;;;23.40;61.46;99891.13;5092198;28;20493;-89
2023/06/21 05:31:26;;;;;;;2.85;1.85;;;;;;;24.02;60.08;99930.19;5103325;28;20444;-88
2023/06/21 05:33:51;;;;;;;5.90;3.17;;;;;;;23.91;59.84;99921.00;5109261;28;20418;-87
2023/06/21 05:36:17;;;;;;;5.93;2.85;;;;;;;24.07;59.76;99899.28;5111121;28;20034;-87
2023/06/21 05:38:42;;;;;;;6.05;2.95;;;;;;;24.27;60.04;99918.63;5103430;28;20366;-87
2023/06/21 05:41:08;;;;;;;4.28;3.03;;;;;;;24.47;59.30;99901.06;5093505;28;20378;-87
2023/06/21 05:43:33;;;;;;;4.43;2.72;;;;;;;24.39;59.10;99903.41;5101922;28;20052;-87
2023/06/21 05:45:59;;;;;;;5.32;2.95;;;;;;;24.34;57.33;99882.16;5094842;28;20131;-87
2023/06/21 05:48:24;;;;;;;7.60;4.63;;;;;;;24.72;56.89;99873.25;5109657;28;20119;-87
2023/06/21 05:50:50;;;;;;;5.43;2.70;;;;;;;25.03;57.00;99903.44;5093117;28;20024;-87
2023/06/21 05:53:15;;;;;;;5.18;3.90;;;;;;;25.22;56.23;99929.09;5091642;28;20047;-87
2023/06/21 05:55:41;;;;;;;4.68;2.33;;;;;;;25.35;55.16;99902.97;5100385;27;20074;-88
2023/06/21 05:58:06;;;;;;;5.05;2.90;;;;;;;25.41;53.70;99928.63;5081390;28;20484;-87
2023/06/21 06:00:32;;;;;;;4.57;2.40;;;;;;;25.48;54.11;99909.19;5105994;28;20028;-88
2023/06/21 06:02:58;;;;;;;6.70;3.05;;;;;;;25.74;53.48;99918.03;5097837;28;20024;-87
2023/06/21 06:05:23;;;;;;;3.00;2.20;;;;;;;26.05;52.21;99904.09;5092034;28;20090;-88
2023/06/21 06:07:48;;;;;;;4.97;2.45;;;;;;;26.12;51.31;99901.78;5091572;28;20020;-89
2023/06/21 06:10:15;;;;;;;5.72;3.83;;;;;;;26.32;49.07;99898.41;5091700;28;20020;-90
2023/06/21 06:12:41;;;;;;;15.60;3.20;;;;;;;26.21;51.77;99892.94;5107870;28;20604;-90
2023/06/21 06:15:07;;;;;;;8.13;3.08;;;;;;;25.71;53.89;99912.88;5111813;28;20108;-89
2023/06/21 06:17:32;;;;;;;6.50;3.65;;;;;;;26.34;51.50;99912.66;5112017;28;20058;-90
2023/06/21 06:19:58;;;;;;;4.35;3.15;;;;;;;26.89;50.83;99899.34;5112273;28;20059;-90
2023/06/21 06:22:24;;;;;;;5.55;3.22;;;;;;;26.96;51.56;99913.28;5111752;28;20034;-89
2023/06/21 06:24:50;;;;;;;3.83;2.97;;;;;;;26.71;50.23;99906.22;5111655;28;20137;-91
2023/06/21 06:27:15;;;;;;;6.68;3.47;;;;;;;26.56;49.76;99887.50;5112092;28;20353;-91
2023/06/21 06:29:41;;;;;;;9.10;3.40;;;;;;;27.21;49.72;99909.44;5111587;28;20034;-89
2023/06/21 06:32:06;;;;;;;4.07;2.53;;;;;;;27.15;48.37;99872.88;5111845;28;20114;-89
2023/06/21 06:34:32;;;;;;;8.57;3.88;;;;;;;28.06;46.63;99890.78;5111101;28;20505;-91
2023/06/21 06:36:57;;;;;;;5.10;3.95;;;;;;;28.34;46.34;99900.97;5111626;28;20028;-90
2023/06/21 06:39:23;;;;;;;4.57;2.65;;;;;;;28.51;47.38;99894.06;5092921;28;20040;-89
2023/06/21 06:41:48;;;;;;;5.45;3.83;;;;;;;27.99;45.69;99891.31;5111467;28;20024;-91
2023/06/21 06:44:14;;;;;;;9.10;3.17;;;;;;;28.47;45.36;99906.22;5111400;28;20080;-89
2023/06/21 06:46:39;;;;;;;4.43;2.30;;;;;;;28.23;44.10;99863.06;5110912;28;20061;-89
2023/06/21 06:49:05;;;;;;;5.35;3.28;;;;;;;28.85;43.67;99899.28;5111220;28;20516;-89
2023/06/21 06:51:30;;;;;;;10.18;3.72;;;;;;;28.88;43.36;99882.72;5110841;28;20035;-88
2023/06/21 06:53:55;;;;;;;11.38;2.90;;;;;;;29.63;42.89;99890.56;5108628;28;20028;-88
2023/06/21 06:56:21;;;;;;;3.83;2.20;;;;;;;29.78;41.19;99844.75;5106155;28;20024;-88
2023/06/21 06:58:46;;;;;;;11.68;3.30;;;;;;;29.92;44.05;99876.13;5110701;27;20055;-89
2023/06/21 07:01:13;;;;;;;4.18;2.72;;;;;;;30.29;40.23;99832.72;5116636;27;20028;-89
2023/06/21 07:03:39;;;;;;;4.50;2.75;;;;;;;30.30;39.82;99852.63;5098645;28;20032;-89
2023/06/21 07:06:04;;;;;;;5.07;2.30;;;;;;;29.87;39.35;99857.53;5106369;27;20039;-90
2023/06/21 07:08:30;;;;;;;5.43;3.13;;;;;;;29.40;41.46;99863.63;5115532;27;20027;-90
2023/06/21 07:10:55;;;;;;;11.88;3.50;;;;;;;29.59;39.88;99875.53;5112849;27;20035;-90
2023/06/21 07:13:23;;;;;;;8.02;2.90;;;;;;;29.99;41.01;99874.56;5102144;27;20039;-90
2023/06/21 07:15:48;;;;;;;7.47;2.53;;;;;;;30.52;41.18;99830.56;5111686;27;20506;-89
2023/06/21 07:18:14;;;;;;;4.88;2.83;;;;;;;31.24;39.17;99863.47;5077814;27;20035;-89
2023/06/21 07:20:40;;;;;;;4.72;2.95;;;;;;;30.46;38.05;99841.16;5092156;28;20036;-90
2023/06/21 07:23:05;;;;;;;4.47;2.85;;;;;;;30.81;39.35;99843.16;5109504;27;20024;-89
2023/06/21 07:25:30;;;;;;;4.47;2.47;;;;;;;31.24;36.70;99847.13;5116596;27;20543;-91
2023/06/21 07:27:56;;;;;;;2.65;1.65;;;;;;;31.20;36.86;99855.75;5110808;27;20027;-90
2023/06/21 07:30:22;;;;;;;4.10;2.67;;;;;;;31.33;36.44;99853.53;5111830;27;20077;-93
2023/06/21 07:32:48;;;;;;;5.05;2.90;;;;;;;31.29;36.53;99843.09;5098502;28;20028;-90
2023/06/21 07:35:14;;;;;;;3.72;2.33;;;;;;;31.48;36.13;99842.09;5088112;28;20020;-92
2023/06/21 07:37:43;;;;;;;3.38;2.42;;;;;;;31.97;34.94;99825.38;5087767;28;20574;-92
2023/06/21 07:40:10;;;;;;;5.38;2.85;;;;;;;32.13;34.30;99787.31;5088340;28;20103;-91
2023/06/21 07:42:36;;;;;;;4.22;2.95;;;;;;;32.75;34.08;99799.97;5088245;28;20447;-92
2023/06/21 07:45:03;;;;;;;4.65;2.80;;;;;;;32.45;33.94;99854.88;5088033;28;20028;-89
2023/06/21 07:47:29;;;;;;;3.33;2.55;;;;;;;32.24;35.52;99818.94;5088337;28;20036;-89
2023/06/21 07:49:54;;;;;;;4.10;2.85;;;;;;;32.42;35.75;99821.59;5088127;28;20384;-91
2023/06/21 07:52:20;;;;;;;4.10;2.67;;;;;;;31.97;38.83;99784.44;5071994;28;20119;-90
2023/06/21 07:54:48;;;;;;;5.38;2.95;;;;;;;32.20;36.35;99840.22;5089674;28;20046;-92
2023/06/21 07:57:17;;;;;;;3.97;2.85;;;;;;;32.26;35.14;99785.00;5090504;28;20024;-91
2023/06/21 07:59:44;;;;;;;3.70;2.60;;;;;;;32.64;33.78;99842.03;5090609;28;20032;-93
2023/06/21 08:02:09;;;;;;;6.78;2.75;;;;;;;32.12;37.40;99783.72;5114456;28;20523;-90
2023/06/21 08:04:36;;;;;;;3.28;2.00;;;;;;;32.60;35.36;99766.94;5122134;28;20031;-92
2023/06/21 08:07:02;;;;;;;6.13;3.10;;;;;;;33.29;33.23;99816.03;5116821;28;20031;-92
2023/06/21 08:09:27;;;;;;;12.35;5.68;;;;;;;33.57;33.46;99807.53;5115416;28;20107;-91
2023/06/21 08:11:53;;;;;;;4.90;2.88;;;;;;;33.44;32.75;99808.91;5118293;28;20038;-92
2023/06/21 08:14:18;;;;;;;3.80;2.53;;;;;;;33.06;33.17;99818.50;5114747;28;20035;-93
2023/06/21 08:16:44;;;;;;;3.35;2.03;;;;;;;33.05;33.91;99811.34;5126230;27;20035;-90
2023/06/21 08:19:10;;;;;;;3.55;2.50;;;;;;;33.29;35.49;99792.31;5127289;27;20031;-88
2023/06/21 08:21:36;;;;;;;5.25;3.58;;;;;;;33.62;34.02;99799.72;5111460;27;20027;-90
2023/06/21 08:24:01;;;;;;;4.57;2.03;;;;;;;33.19;34.86;99847.09;5115182;27;20051;-91
2023/06/21 08:26:27;;;;;;;5.80;2.13;;;;;;;32.51;36.29;99803.41;5114586;28;20146;-88
2023/06/21 08:28:52;;;;;;;3.95;2.83;;;;;;;32.81;34.68;99815.69;5099724;28;20031;-88
2023/06/21 08:31:18;;;;;;;4.05;2.35;;;;;;;32.80;36.72;99790.25;5107829;27;20115;-88
2023/06/21 08:33:44;;;;;;;2.30;1.60;;;;;;;33.17;35.79;99816.34;5131088;27;20826;-89
2023/06/21 08:36:11;;;;;;;3.75;2.25;;;;;;;32.54;34.84;99814.00;5134703;27;20063;-89
2023/06/21 08:38:37;;;;;;;4.72;2.60;;;;;;;33.05;36.10;99811.34;5133955;27;20110;-90
2023/06/21 08:41:04;;;;;;;3.40;2.20;;;;;;;33.68;35.09;99818.16;5134209;27;20027;-92
2023/06/21 08:43:31;;;;;;;2.80;1.85;;;;;;;34.24;33.03;99826.56;5134562;27;20043;-92
2023/06/21 08:45:57;;;;;;;3.72;2.63;;;;;;;34.08;31.61;99800.91;5115978;27;20043;-91
2023/06/21 08:48:25;;;;;;;2.75;1.63;;;;;;;34.41;28.83;99810.97;5133872;27;20083;-90
2023/06/21 08:50:50;;;;;;;2.92;1.88;;;;;;;34.18;28.04;99747.88;5115490;27;20121;-89
2023/06/21 08:53:32;;;;;;;16.58;7.78;;;;;;;34.81;28.98;99794.63;5133976;27;20109;-87
2023/06/21 08:56:00;;;;;;;9.27;6.32;;;;;;;35.12;29.04;99813.81;5129628;27;20895;-87
2023/06/21 08:58:38;;;;;;;3.47;2.00;;;;;;;34.75;28.58;99805.22;5112550;27;20036;-87
2023/06/21 09:01:06;;;;;;;2.78;1.70;;;;;;;34.89;28.95;99800.88;5095714;28;20454;-89
2023/06/21 09:03:55;;;;;;;2.75;1.83;;;;;;;34.90;28.08;99791.66;5124398;27;20084;-88
2023/06/21 09:06:22;;;;;;;3.25;2.03;;;;;;;35.32;29.20;99800.53;5115286;27;20408;-89
2023/06/21 09:08:49;;;;;;;4.53;1.88;;;;;;;35.03;29.49;99788.31;5114019;27;20508;-89
2023/06/21 09:11:16;;;;;;;3.50;1.85;;;;;;;35.12;30.17;99780.91;5105533;27;20471;-88
2023/06/21 09:13:44;;;;;;;3.00;2.05;;;;;;;34.88;28.12;99792.84;5110561;28;20118;-90
2023/06/21 09:16:28;;;;;;;3.55;2.28;;;;;;;34.81;29.36;99800.94;5111192;28;20020;-92
2023/06/21 09:18:54;;;;;;;2.00;1.15;;;;;;;34.55;25.73;99735.47;5104993;28;20106;-89
2023/06/21 09:21:20;;;;;;;2.05;1.25;;;;;;;34.79;24.80;99803.84;5121880;28;20024;-89
2023/06/21 09:23:45;;;;;;;2.03;1.45;;;;;;;35.06;26.31;99809.03;5115352;28;20119;-89
2023/06/21 09:26:12;;;;;;;5.05;2.78;;;;;;;35.13;26.58;99807.31;5131473;28;20034;-89
2023/06/21 09:28:38;;;;;;;5.80;2.60;;;;;;;34.88;29.91;99785.50;5127554;28;20020;-88
2023/06/21 09:31:33;;;;;;;5.38;3.70;;;;;;;35.34;26.22;99806.66;5134954;28;20022;-90
2023/06/21 09:33:59;;;;;;;3.80;2.42;;;;;;;34.89;26.47;99789.09;5004415;28;20056;-90
2023/06/21 09:36:25;;;;;;;4.03;2.47;;;;;;;35.36;26.78;99812.84;5020583;28;20097;-90
2023/06/21 09:38:51;;;;;;;7.72;3.35;;;;;;;34.86;26.29;99805.88;5007070;28;20440;-85
2023/06/21 09:41:19;;;;;;;4.20;2.28;;;;;;;34.63;28.59;99805.78;5016929;28;20097;-84
2023/06/21 09:43:45;;;;;;;3.00;2.38;;;;;;;34.36;30.91;99792.34;5018539;28;20057;-86
2023/06/21 09:46:13;;;;;;;3.63;1.73;;;;;;;34.27;26.25;99767.91;5010138;28;20503;-85
2023/06/21 09:48:40;;;;;;;3.70;2.90;;;;;;;34.32;30.03;99798.34;4992821;28;20457;-86
2023/06/21 09:51:08;;;;;;;2.50;1.63;;;;;;;34.87;26.28;99782.94;4996628;28;20069;-86
2023/06/21 09:53:35;;;;;;;6.82;4.13;;;;;;;35.22;26.61;99802.59;5004355;28;20106;-87
2023/06/21 09:56:01;;;;;;;10.40;3.75;;;;;;;35.55;25.24;99773.09;5016641;28;20038;-88
2023/06/21 09:58:28;;;;;;;2.92;1.67;;;;;;;35.22;24.02;99789.78;5023136;28;20057;-89
2023/06/21 10:00:56;;;;;;;1.10;0.93;;;;;;;35.53;24.56;99788.03;5024358;28;20143;-89
2023/06/21 10:03:23;;;;;;;1.60;1.10;;;;;;;35.65;23.65;99757.25;5015445;28;20038;-86
2023/06/21 10:05:54;;;;;;;2.75;1.40;;;;;;;36.16;23.38;99785.94;5021754;28;20034;-90
2023/06/21 10:08:27;;;;;;;2.22;1.65;;;;;;;35.62;24.93;99749.41;5018716;28;20541;-89
2023/06/21 10:10:54;;;;;;;2.05;1.45;;;;;;;35.41;23.61;99772.00;5063079;28;20075;-89
2023/06/21 10:13:37;;;;;;;2.42;1.50;;;;;;;35.11;24.71;99763.63;5104747;27;20110;-87
2023/06/21 10:19:26;;;;;;;2.05;1.50;;;;;;;35.19;27.24;99765.47;5103434;28;20639;-85
2023/06/21 10:22:17;;;;;;;1.95;1.02;;;;;;;35.44;22.81;99766.16;5093542;28;20043;-87
2023/06/21 10:24:43;;;;;;;2.55;1.70;;;;;;;35.02;23.19;99785.75;5096153;28;20055;-88
2023/06/21 10:27:10;;;;;;;4.57;1.73;;;;;;;34.95;23.44;99763.72;5113997;28;20031;-88
2023/06/21 10:29:38;;;;;;;2.03;1.38;;;;;;;34.91;24.04;99778.78;5114222;28;20023;-87
2023/06/21 10:32:05;;;;;;;1.85;1.40;;;;;;;34.73;23.10;99736.06;5117428;27;20028;-88
2023/06/21 10:34:59;;;;;;;4.32;1.92;;;;;;;34.16;23.92;99753.53;5101696;28;20112;-88
2023/06/21 10:37:48;;;;;;;3.28;1.58;;;;;;;34.79;23.72;99770.97;5102583;28;20031;-87
2023/06/21 10:40:15;;;;;;;2.47;1.40;;;;;;;34.90;22.72;99769.72;5116439;27;20031;-85
2023/06/21 10:42:41;;;;;;;1.95;1.20;;;;;;;34.99;22.71;99742.28;5133209;27;20515;-86
2023/06/21 10:45:09;;;;;;;2.22;1.30;;;;;;;35.50;23.61;99765.44;5132709;27;20058;-87
2023/06/21 10:47:36;;;;;;;3.33;1.92;;;;;;;35.70;22.63;99772.28;5123187;27;20031;-85
2023/06/21 10:50:02;;;;;;;4.63;1.98;;;;;;;35.19;24.84;99772.81;5078524;28;20166;-86
2023/06/21 10:52:30;;;;;;;1.65;1.02;;;;;;;35.25;24.15;99755.63;5073065;28;20143;-85
2023/06/21 10:55:00;;;;;;;2.75;1.20;;;;;;;35.42;23.47;99768.25;5101122;27;20040;-85
2023/06/21 10:57:28;;;;;;;4.80;2.00;;;;;;;35.13;23.08;99752.47;5111960;27;20473;-86
2023/06/21 11:00:00;;;;;;;2.08;1.13;;;;;;;34.52;22.54;99730.34;5111093;27;20031;-85
2023/06/21 11:02:27;;;;;;;2.40;1.42;;;;;;;34.74;22.96;99736.91;5098718;27;20049;-86
2023/06/21 11:05:32;;;;;;;2.00;0.95;;;;;;;34.83;25.91;99748.72;5108897;27;20398;-87
2023/06/21 11:08:05;;;;;;;1.75;1.20;;;;;;;34.84;24.57;99726.63;5015903;28;20120;-85
2023/06/21 11:10:49;;;;;;;2.35;1.42;;;;;;;35.36;22.31;99727.84;5013549;28;20053;-86
2023/06/21 11:13:16;;;;;;;1.30;0.75;;;;;;;35.14;21.24;99718.53;5017268;28;20038;-86
2023/06/21 11:15:45;;;;;;;1.88;1.17;;;;;;;35.36;21.89;99722.38;5015722;28;20132;-86
2023/06/21 11:18:20;;;;;;;1.58;0.90;;;;;;;35.50;21.96;99731.69;5013149;28;20076;-87
2023/06/21 11:20:49;;;;;;;1.33;1.13;;;;;;;35.54;22.51;99743.97;5007802;28;20111;-86
2023/06/21 11:23:19;;;;;;;1.88;1.23;;;;;;;35.88;22.66;99725.34;5016797;28;20033;-87
2023/06/21 11:25:51;;;;;;;1.92;1.17;;;;;;;36.06;21.49;99731.34;5025429;28;20069;-86
2023/06/21 11:28:19;;;;;;;1.77;1.20;;;;;;;35.77;21.75;99754.94;5011016;28;20492;-87
2023/06/21 11:31:07;;;;;;;2.17;1.15;;;;;;;35.77;23.12;99741.22;5022126;28;20034;-86
2023/06/21 11:33:56;;;;;;;1.75;1.00;;;;;;;35.26;20.99;99741.78;5009984;28;20127;-87
2023/06/21 11:36:29;;;;;;;1.52;1.13;;;;;;;34.59;20.65;99684.78;5008133;28;20037;-86
2023/06/21 11:39:04;;;;;;;2.70;1.48;;;;;;;35.38;21.59;99736.72;5056020;28;20055;-86
2023/06/21 11:41:34;;;;;;;;;;;;;;;35.17;21.93;99736.50;5104142;28;20032;-84